Time;durP1;ratioP1;P1;durP2;ratioP2;P2;SDS_P1;SDS_P2;PMS_P1;PMS_P2;Temp;Humidity;BMP_temperature;BMP_pressure;BME280_temperature;BME280_humidity;BME280_pressure;Samples;Min_cycle;Max_cycle;Signal;HPM_P1;HPM_P2
2022/03/27 00:00:42;;;;;;;14.20;3.10;;;;;;;2.36;55.82;100815.63;103312;1302;24370;-29
2022/03/27 00:03:08;;;;;;;6.60;1.70;;;;;;;2.32;55.87;100810.06;103365;1302;24250;-29
2022/03/27 00:05:34;;;;;;;11.20;1.90;;;;;;;2.26;55.89;100814.36;103444;1302;24246;-25
2022/03/27 00:08:00;;;;;;;6.10;2.00;;;;;;;2.21;56.47;100816.31;103508;1302;24246;-26
2022/03/27 00:10:26;;;;;;;4.40;1.50;;;;;;;2.17;56.78;100813.98;103384;1302;24232;-28
2022/03/27 00:12:52;;;;;;;5.60;1.50;;;;;;;2.11;57.81;100814.92;103445;1302;24422;-25
2022/03/27 00:15:17;;;;;;;5.50;1.60;;;;;;;2.05;57.83;100811.98;103469;1302;24244;-31
2022/03/27 00:17:43;;;;;;;5.60;2.40;;;;;;;1.98;59.29;100810.70;103324;1300;24303;-29
2022/03/27 00:20:09;;;;;;;10.60;2.90;;;;;;;1.90;58.06;100809.52;103408;1302;24220;-27
2022/03/27 00:22:36;;;;;;;10.30;2.30;;;;;;;1.79;58.87;100811.13;103445;1302;24209;-28
2022/03/27 00:25:05;;;;;;;44.40;8.10;;;;;;;1.66;59.08;100813.96;103366;1302;22513;-30
2022/03/27 00:27:31;;;;;;;30.80;7.00;;;;;;;1.55;59.90;100811.75;103409;1302;24198;-28
2022/03/27 00:29:58;;;;;;;41.40;7.80;;;;;;;1.52;61.38;100812.30;103411;1302;24200;-30
2022/03/27 00:32:24;;;;;;;49.40;10.00;;;;;;;1.54;62.53;100818.14;103436;1302;24307;-29
2022/03/27 00:34:50;;;;;;;45.50;10.40;;;;;;;1.55;62.78;100818.29;103452;1302;24318;-26
2022/03/27 00:37:16;;;;;;;30.70;8.10;;;;;;;1.49;62.47;100823.06;103450;1302;24317;-27
2022/03/27 00:39:42;;;;;;;33.40;9.90;;;;;;;1.40;62.11;100827.41;103401;1302;24254;-29
2022/03/27 00:42:08;;;;;;;28.70;11.40;;;;;;;1.29;61.89;100831.29;103468;1302;24252;-27
2022/03/27 00:44:35;;;;;;;21.60;5.70;;;;;;;1.20;62.49;100834.36;103442;1302;24369;-26
2022/03/27 00:47:01;;;;;;;5.50;1.90;;;;;;;1.12;62.92;100840.49;103391;1302;24218;-28
2022/03/27 00:49:28;;;;;;;4.50;1.90;;;;;;;1.14;62.73;100843.41;103467;1302;22560;-29
2022/03/27 00:51:55;;;;;;;2.60;1.20;;;;;;;1.12;62.82;100843.89;103372;1302;22509;-25
2022/03/27 00:54:22;;;;;;;6.20;1.70;;;;;;;1.07;63.56;100841.92;103349;1302;22812;-27
2022/03/27 00:56:47;;;;;;;6.70;1.50;;;;;;;1.00;63.19;100839.39;103429;1302;24222;-28
2022/03/27 00:59:14;;;;;;;3.40;1.40;;;;;;;0.98;62.79;100838.84;103409;1302;24262;-30
2022/03/27 01:01:39;;;;;;;4.30;1.50;;;;;;;0.96;63.66;100841.41;103394;1302;22508;-25
2022/03/27 01:04:06;;;;;;;3.90;1.20;;;;;;;0.88;63.94;100844.04;103391;1302;22506;-30
2022/03/27 01:06:33;;;;;;;5.30;1.50;;;;;;;0.82;63.59;100841.77;103451;1302;22526;-25
2022/03/27 01:11:29;;;;;;;5.80;2.20;;;;;;;0.67;63.56;100849.58;103480;1302;24341;-25
2022/03/27 01:13:56;;;;;;;1.60;0.90;;;;;;;0.67;63.34;100849.08;103406;1302;22523;-26
2022/03/27 01:16:30;;;;;;;5.30;2.00;;;;;;;0.64;63.24;100850.52;103406;1302;22951;-29
2022/03/27 01:18:56;;;;;;;3.90;1.60;;;;;;;0.64;62.94;100851.02;103474;1302;24368;-29
2022/03/27 01:21:22;;;;;;;3.80;1.40;;;;;;;0.64;62.93;100851.91;103413;1302;24302;-25
2022/03/27 01:23:48;;;;;;;6.00;0.90;;;;;;;0.62;62.70;100859.42;103406;1302;24226;-27
2022/03/27 01:26:13;;;;;;;9.00;0.80;;;;;;;0.61;62.80;100860.05;103411;1302;24265;-26
2022/03/27 01:28:39;;;;;;;2.40;1.10;;;;;;;0.57;63.15;100863.46;103475;1302;24221;-29
2022/03/27 01:31:07;;;;;;;5.60;1.40;;;;;;;0.56;62.76;100861.58;103446;1302;24212;-26
2022/03/27 01:33:33;;;;;;;3.80;1.40;;;;;;;0.55;62.75;100864.32;103402;1302;24293;-29
2022/03/27 01:36:00;;;;;;;3.30;1.20;;;;;;;0.53;62.77;100866.00;103363;1302;24260;-26
2022/03/27 01:38:27;;;;;;;6.50;1.50;;;;;;;0.48;63.13;100871.45;103461;1302;22511;-30
2022/03/27 01:40:53;;;;;;;6.00;2.00;;;;;;;0.43;63.40;100870.85;103386;1302;22503;-26
2022/03/27 01:43:18;;;;;;;9.40;2.60;;;;;;;0.40;63.19;100875.96;103405;1302;24671;-27
2022/03/27 01:45:44;;;;;;;10.10;2.60;;;;;;;0.40;62.60;100874.52;103324;1303;24273;-26
2022/03/27 01:48:10;;;;;;;9.00;2.80;;;;;;;0.40;62.36;100876.12;103378;1302;24215;-26
2022/03/27 01:50:36;;;;;;;3.80;1.20;;;;;;;0.40;62.30;100877.36;103431;1302;24414;-26
2022/03/27 01:53:02;;;;;;;7.90;1.80;;;;;;;0.43;62.09;100870.31;103485;1302;24293;-27
2022/03/27 01:55:27;;;;;;;6.90;1.40;;;;;;;0.41;62.14;100872.70;103452;1302;22520;-28
2022/03/27 01:57:53;;;;;;;2.30;1.20;;;;;;;0.37;62.23;100871.55;103407;1302;24303;-28
2022/03/27 02:00:19;;;;;;;4.80;1.50;;;;;;;0.31;62.40;100871.40;103377;1302;24219;-25
2022/03/27 02:02:45;;;;;;;4.30;0.90;;;;;;;0.26;64.68;100870.67;103316;1302;25160;-25
2022/03/27 02:05:11;;;;;;;5.50;0.90;;;;;;;0.27;65.43;100869.95;103434;1302;24325;-28
2022/03/27 02:07:38;;;;;;;2.20;0.80;;;;;;;0.23;65.06;100871.91;103310;1302;24393;-26
2022/03/27 02:10:05;;;;;;;4.20;1.70;;;;;;;0.17;65.44;100870.52;103350;1302;22668;-30
2022/03/27 02:12:34;;;;;;;6.90;2.40;;;;;;;0.11;64.63;100868.95;103477;1302;22688;-25
2022/03/27 02:15:00;;;;;;;12.30;2.80;;;;;;;0.02;63.31;100862.13;103419;1302;22572;-28
2022/03/27 02:17:26;;;;;;;5.30;2.10;;;;;;;-0.09;63.27;100864.53;103517;1302;24256;-27
2022/03/27 02:19:51;;;;;;;5.60;2.00;;;;;;;-0.26;63.67;100868.72;103412;1302;22502;-29
2022/03/27 02:22:17;;;;;;;6.90;2.00;;;;;;;-0.41;64.33;100868.02;103309;1302;24418;-28
2022/03/27 02:24:43;;;;;;;7.00;2.50;;;;;;;-0.52;64.71;100875.33;103317;1302;24273;-29
2022/03/27 02:27:08;;;;;;;9.20;2.20;;;;;;;-0.63;64.67;100875.42;103364;1302;24396;-29
2022/03/27 02:29:34;;;;;;;13.00;3.10;;;;;;;-0.75;64.97;100875.23;103417;1300;22518;-29
2022/03/27 02:32:00;;;;;;;11.90;3.40;;;;;;;-0.85;65.45;100877.60;103349;1303;24397;-29
2022/03/27 02:34:26;;;;;;;5.10;3.00;;;;;;;-0.98;65.62;100873.57;103252;1302;24259;-26
2022/03/27 02:36:51;;;;;;;7.20;2.10;;;;;;;-1.11;66.14;100869.24;103443;1302;24282;-28
2022/03/27 02:39:17;;;;;;;8.10;3.00;;;;;;;-1.19;66.65;100871.55;103377;1302;22509;-26
2022/03/27 02:41:43;;;;;;;6.70;2.50;;;;;;;-1.27;66.33;100873.98;103406;1302;24311;-25
2022/03/27 02:44:12;;;;;;;5.30;2.40;;;;;;;-1.37;66.22;100874.71;103375;1302;24229;-27
2022/03/27 02:46:38;;;;;;;10.90;2.00;;;;;;;-1.47;66.19;100869.81;103318;1302;24216;-26
2022/03/27 02:49:04;;;;;;;20.30;7.70;;;;;;;-1.55;66.26;100870.77;103470;1302;22499;-28
2022/03/27 02:51:30;;;;;;;6.40;3.80;;;;;;;-1.59;66.65;100872.39;103432;1302;24435;-28
2022/03/27 02:53:56;;;;;;;7.60;2.90;;;;;;;-1.60;67.15;100873.13;103391;1302;24321;-26
2022/03/27 02:56:21;;;;;;;21.10;4.60;;;;;;;-1.57;67.87;100869.45;103468;1301;24214;-26
2022/03/27 02:58:47;;;;;;;10.50;3.70;;;;;;;-1.60;67.64;100869.09;103413;1302;22622;-29
2022/03/27 03:01:13;;;;;;;17.60;7.00;;;;;;;-1.64;67.98;100870.91;103490;1302;24679;-26
2022/03/27 03:03:41;;;;;;;12.70;5.20;;;;;;;-1.70;68.13;100876.99;103464;1302;24192;-29
2022/03/27 03:06:07;;;;;;;13.30;2.20;;;;;;;-1.70;68.49;100880.71;103435;1302;24302;-29
2022/03/27 03:08:36;;;;;;;10.10;4.50;;;;;;;-1.64;68.70;100882.30;103477;1302;22512;-27
2022/03/27 03:11:02;;;;;;;24.80;7.60;;;;;;;-1.49;68.61;100882.55;103448;1302;24196;-26
2022/03/27 03:13:27;;;;;;;56.00;11.60;;;;;;;-1.37;68.63;100883.64;103457;1302;25270;-27
2022/03/27 03:15:53;;;;;;;27.60;6.80;;;;;;;-1.32;68.39;100885.89;103292;1303;22732;-30
2022/03/27 03:18:19;;;;;;;22.20;9.50;;;;;;;-1.35;68.66;100891.62;103456;1302;24297;-26
2022/03/27 03:20:45;;;;;;;19.50;8.50;;;;;;;-1.36;69.35;100900.10;103493;1302;24332;-29
2022/03/27 03:23:11;;;;;;;8.90;4.50;;;;;;;-1.41;69.70;100903.20;103416;1302;24325;-30
2022/03/27 03:25:38;;;;;;;13.20;4.50;;;;;;;-1.48;69.93;100901.29;103456;1302;24320;-27
2022/03/27 03:28:04;;;;;;;10.00;4.90;;;;;;;-1.52;69.87;100900.84;103522;1302;24412;-29
2022/03/27 03:30:30;;;;;;;8.90;4.70;;;;;;;-1.56;69.68;100902.76;103454;1301;24241;-26
2022/03/27 03:32:55;;;;;;;20.10;5.60;;;;;;;-1.59;69.58;100899.23;103494;1302;24198;-28
2022/03/27 03:35:21;;;;;;;11.10;4.80;;;;;;;-1.58;71.82;100900.44;103386;1302;24216;-29
2022/03/27 03:37:47;;;;;;;15.60;5.80;;;;;;;-1.58;71.49;100902.39;103403;1302;24268;-29
2022/03/27 03:40:14;;;;;;;24.60;8.50;;;;;;;-1.56;73.59;100903.50;103465;1302;24359;-25
2022/03/27 03:42:40;;;;;;;16.50;7.80;;;;;;;-1.56;73.71;100909.48;103447;1302;25250;-25
2022/03/27 03:45:06;;;;;;;31.80;8.60;;;;;;;-1.62;72.95;100906.45;103415;1302;24349;-28
2022/03/27 03:47:32;;;;;;;45.40;10.30;;;;;;;-1.72;71.89;100904.52;103260;1304;22502;-25
2022/03/27 03:49:58;;;;;;;30.80;9.70;;;;;;;-1.78;71.66;100906.09;103448;1302;24218;-28
2022/03/27 03:52:23;;;;;;;23.00;7.00;;;;;;;-1.84;71.27;100912.35;103386;1302;22838;-29
2022/03/27 03:54:49;;;;;;;16.60;5.70;;;;;;;-1.88;71.38;100912.20;103432;1302;24331;-27
2022/03/27 03:57:14;;;;;;;32.50;17.80;;;;;;;-1.96;71.16;100910.50;103399;1302;24214;-29
2022/03/27 03:59:41;;;;;;;25.00;10.10;;;;;;;-2.04;71.37;100913.23;103447;1302;24222;-28
2022/03/27 04:02:07;;;;;;;33.20;13.60;;;;;;;-2.14;71.32;100913.20;103468;1302;24354;-26
2022/03/27 04:04:34;;;;;;;30.00;9.70;;;;;;;-2.21;71.57;100913.55;103362;1302;24343;-29
2022/03/27 04:07:00;;;;;;;13.70;6.20;;;;;;;-2.21;71.70;100915.85;103471;1302;22507;-28
2022/03/27 04:09:27;;;;;;;18.40;7.00;;;;;;;-2.19;71.69;100923.62;103425;1302;24215;-26
2022/03/27 04:11:53;;;;;;;28.70;7.60;;;;;;;-2.14;71.69;100925.13;103438;1301;22506;-27
2022/03/27 04:14:19;;;;;;;16.00;5.70;;;;;;;-2.07;71.83;100928.80;103089;1302;460397;-27
2022/03/27 04:16:45;;;;;;;22.90;6.60;;;;;;;-1.98;72.21;100933.77;103474;1302;24356;-29
2022/03/27 04:19:12;;;;;;;22.70;7.50;;;;;;;-1.89;72.44;100934.20;103434;1302;24318;-29
2022/03/27 04:21:39;;;;;;;21.00;7.50;;;;;;;-1.87;72.47;100931.47;103410;1301;24212;-26
2022/03/27 04:24:06;;;;;;;14.10;6.30;;;;;;;-1.90;72.40;100933.89;103437;1302;24233;-26
2022/03/27 04:26:33;;;;;;;22.40;8.30;;;;;;;-1.98;72.38;100932.21;103493;1302;24232;-25
2022/03/27 04:28:59;;;;;;;21.70;8.10;;;;;;;-2.10;72.15;100932.64;103489;1302;24357;-28
2022/03/27 04:31:25;;;;;;;12.20;6.20;;;;;;;-2.24;72.20;100937.38;103405;1302;24219;-25
2022/03/27 04:33:50;;;;;;;21.00;7.10;;;;;;;-2.36;72.21;100938.31;103477;1302;24435;-29
2022/03/27 04:36:16;;;;;;;20.50;5.30;;;;;;;-2.42;72.04;100943.33;103427;1302;24319;-26
2022/03/27 04:38:42;;;;;;;13.30;5.60;;;;;;;-2.47;72.67;100943.94;103443;1302;24251;-29
2022/03/27 04:41:07;;;;;;;28.90;8.50;;;;;;;-2.50;72.87;100945.88;103428;1302;24301;-28
2022/03/27 04:43:33;;;;;;;13.70;6.30;;;;;;;-2.52;73.47;100949.64;103405;1302;24385;-25
2022/03/27 04:45:59;;;;;;;11.60;4.70;;;;;;;-2.48;75.06;100942.98;103416;1302;24354;-25
2022/03/27 04:48:25;;;;;;;7.80;4.10;;;;;;;-2.40;75.57;100947.13;103440;1302;24196;-29
2022/03/27 04:50:53;;;;;;;15.40;4.80;;;;;;;-2.32;75.75;100951.10;103446;1302;24345;-30
2022/03/27 04:53:19;;;;;;;18.10;5.60;;;;;;;-2.21;75.09;100945.32;103414;1302;24254;-26
2022/03/27 04:55:45;;;;;;;21.30;4.30;;;;;;;-2.15;74.50;100946.91;103467;1302;22619;-25
2022/03/27 04:58:11;;;;;;;9.20;3.90;;;;;;;-2.12;74.66;100951.18;103463;1302;24215;-27
2022/03/27 05:00:37;;;;;;;6.60;3.30;;;;;;;-2.08;73.90;100948.16;103451;1302;22514;-30
2022/03/27 05:03:03;;;;;;;6.50;2.00;;;;;;;-2.03;74.40;100949.64;103494;1302;22631;-27
2022/03/27 05:05:30;;;;;;;4.00;2.40;;;;;;;-1.96;74.07;100952.27;103466;1301;22751;-30
2022/03/27 05:07:56;;;;;;;11.60;2.40;;;;;;;-1.95;74.80;100954.84;103490;1302;22794;-26
2022/03/27 05:10:23;;;;;;;14.70;2.40;;;;;;;-1.87;74.72;100955.18;103494;1301;22506;-25
2022/03/27 05:12:48;;;;;;;24.40;4.50;;;;;;;-1.80;74.24;100954.80;103481;1302;24216;-28
2022/03/27 05:15:14;;;;;;;19.00;5.10;;;;;;;-1.69;74.12;100958.08;103471;1302;24257;-28
2022/03/27 05:17:54;;;;;;;8.10;4.50;;;;;;;-1.59;74.54;100961.07;103470;1302;22510;-25
2022/03/27 05:20:21;;;;;;;7.40;3.00;;;;;;;-1.51;74.68;100969.07;103481;1302;24344;-26
2022/03/27 05:22:47;;;;;;;10.00;4.70;;;;;;;-1.47;76.62;100973.08;103461;1302;24225;-26
2022/03/27 05:25:13;;;;;;;8.50;4.00;;;;;;;-1.45;75.77;100974.17;103443;1302;24238;-28
2022/03/27 05:27:43;;;;;;;8.20;3.20;;;;;;;-1.48;75.32;100977.34;103413;1302;24299;-26
2022/03/27 05:30:09;;;;;;;8.30;3.10;;;;;;;-1.49;74.64;100985.29;103357;1302;24249;-29
2022/03/27 05:32:35;;;;;;;26.50;6.40;;;;;;;-1.51;74.91;100985.75;103421;1302;24263;-29
2022/03/27 05:35:01;;;;;;;8.90;4.20;;;;;;;-1.47;74.52;100987.27;103339;1302;24302;-29
2022/03/27 05:37:26;;;;;;;15.00;6.50;;;;;;;-1.45;74.52;100989.84;103367;1302;24216;-26
2022/03/27 05:39:52;;;;;;;19.40;6.40;;;;;;;-1.46;75.34;100992.87;103397;1302;22847;-26
2022/03/27 05:42:18;;;;;;;17.00;6.50;;;;;;;-1.41;76.50;100997.00;103435;1302;24225;-29
2022/03/27 05:44:43;;;;;;;16.60;3.80;;;;;;;-1.22;77.71;101001.12;103426;1302;23150;-29
2022/03/27 05:47:09;;;;;;;10.20;4.80;;;;;;;-1.07;76.88;101005.19;103431;1302;24223;-26
2022/03/27 05:49:35;;;;;;;8.50;4.00;;;;;;;-0.93;76.47;101010.48;103323;1302;22696;-26
2022/03/27 05:52:00;;;;;;;12.00;4.50;;;;;;;-0.89;75.33;101005.66;103448;1302;24275;-26
2022/03/27 05:54:26;;;;;;;7.10;3.70;;;;;;;-0.82;75.12;101000.54;103451;1302;24224;-29
2022/03/27 05:56:52;;;;;;;7.80;4.50;;;;;;;-0.71;75.02;101001.64;103331;1302;24246;-29
2022/03/27 05:59:18;;;;;;;8.20;3.90;;;;;;;-0.62;73.71;101001.01;103466;1302;24193;-26
2022/03/27 06:01:44;;;;;;;7.10;2.70;;;;;;;-0.66;74.61;100998.94;103440;1302;22514;-27
2022/03/27 06:04:09;;;;;;;10.10;3.60;;;;;;;-0.62;74.13;100999.40;103401;1302;24262;-26
2022/03/27 06:06:36;;;;;;;8.50;4.10;;;;;;;-0.53;74.73;101003.63;103532;1302;24324;-25
2022/03/27 06:09:01;;;;;;;10.00;5.00;;;;;;;-0.47;73.66;101003.14;103471;1302;24472;-29
2022/03/27 06:11:28;;;;;;;27.80;11.70;;;;;;;-0.36;73.14;101010.09;103385;1302;24219;-30
2022/03/27 06:13:54;;;;;;;14.70;8.50;;;;;;;-0.23;73.01;101006.38;103477;1302;24356;-25
2022/03/27 06:16:20;;;;;;;20.60;10.10;;;;;;;-0.02;72.83;101008.48;103386;1300;24276;-27
2022/03/27 06:18:47;;;;;;;19.30;8.60;;;;;;;0.22;72.39;101009.72;103404;1302;24331;-25
2022/03/27 06:21:13;;;;;;;14.90;7.40;;;;;;;0.41;71.96;101011.59;103456;1302;24297;-28
2022/03/27 06:23:38;;;;;;;21.60;9.60;;;;;;;0.57;71.70;101013.95;103436;1302;24222;-30
2022/03/27 06:26:04;;;;;;;14.60;6.90;;;;;;;0.67;71.16;101012.52;103453;1300;22501;-26
2022/03/27 06:28:30;;;;;;;14.90;5.10;;;;;;;0.81;71.19;101011.61;103385;1302;24404;-27
2022/03/27 06:30:56;;;;;;;23.30;5.60;;;;;;;0.99;71.03;101015.45;103421;1302;24293;-27
2022/03/27 06:33:22;;;;;;;14.70;6.70;;;;;;;1.15;70.20;101017.26;103413;1302;22502;-25
2022/03/27 06:35:48;;;;;;;21.80;8.20;;;;;;;1.32;69.93;101017.42;103415;1302;24246;-24
2022/03/27 06:38:13;;;;;;;19.70;5.80;;;;;;;1.59;70.05;101021.50;103389;1301;24236;-26
2022/03/27 06:40:39;;;;;;;14.80;5.30;;;;;;;1.80;69.57;101022.45;103436;1302;24281;-24
2022/03/27 06:43:05;;;;;;;17.50;6.50;;;;;;;1.91;69.35;101027.22;103406;1302;24345;-27
2022/03/27 06:45:31;;;;;;;14.10;6.00;;;;;;;2.04;69.10;101027.09;103476;1302;22638;-29
2022/03/27 06:47:57;;;;;;;19.20;4.10;;;;;;;2.20;68.92;101026.55;103492;1302;24298;-27
2022/03/27 06:50:23;;;;;;;13.30;4.50;;;;;;;2.42;68.85;101022.73;103534;1302;24220;-29
2022/03/27 06:52:49;;;;;;;7.60;3.70;;;;;;;2.68;68.83;101024.65;103518;1302;24376;-30
2022/03/27 06:55:15;;;;;;;6.30;2.20;;;;;;;2.99;67.91;101028.90;103406;1302;24496;-25
2022/03/27 06:57:40;;;;;;;6.50;3.20;;;;;;;3.23;67.42;101033.20;103440;1302;24220;-27
2022/03/27 07:05:09;;;;;;;6.10;2.60;;;;;;;4.01;66.53;101033.53;103512;1302;22689;-25
2022/03/27 07:07:36;;;;;;;11.40;2.80;;;;;;;4.19;65.07;101034.14;103407;1302;24234;-28
2022/03/27 07:10:03;;;;;;;5.40;2.30;;;;;;;4.34;65.27;101028.94;103431;1302;24255;-29
2022/03/27 07:12:29;;;;;;;13.00;3.70;;;;;;;4.56;64.05;101032.19;103484;1300;24303;-25
2022/03/27 07:14:55;;;;;;;8.40;2.80;;;;;;;4.86;63.25;101027.94;103432;1302;22621;-26
2022/03/27 07:17:21;;;;;;;7.30;4.30;;;;;;;5.12;62.88;101027.54;103486;1302;24405;-30
2022/03/27 07:19:49;;;;;;;11.00;3.00;;;;;;;5.46;62.80;101027.44;103307;1302;22504;-28
2022/03/27 07:22:15;;;;;;;5.40;2.40;;;;;;;5.67;61.51;101023.61;103436;1302;24250;-25
2022/03/27 07:24:41;;;;;;;3.30;1.50;;;;;;;6.14;60.85;101023.17;103420;1302;24229;-25
2022/03/27 07:27:08;;;;;;;4.70;1.40;;;;;;;6.54;57.93;101018.36;103340;1303;24221;-28
2022/03/27 07:29:37;;;;;;;4.70;2.10;;;;;;;6.85;55.44;101019.58;103381;1302;24252;-25
2022/03/27 07:32:04;;;;;;;13.40;7.40;;;;;;;7.09;52.33;101019.13;103493;1302;24267;-28
2022/03/27 07:34:30;;;;;;;6.10;3.50;;;;;;;7.52;53.35;101016.55;103414;1302;24450;-31
2022/03/27 07:36:55;;;;;;;8.30;3.80;;;;;;;7.82;50.93;101011.70;103430;1302;24256;-25
2022/03/27 07:39:22;;;;;;;16.70;3.00;;;;;;;8.05;48.75;101013.91;103426;1302;24320;-29
2022/03/27 07:41:48;;;;;;;87.10;32.10;;;;;;;8.37;47.44;101018.11;103423;1302;24515;-29
2022/03/27 07:44:13;;;;;;;27.70;11.70;;;;;;;8.66;47.69;101020.96;103445;1302;24221;-27
2022/03/27 07:46:39;;;;;;;67.50;30.10;;;;;;;8.99;47.92;101023.70;103398;1302;22912;-27
2022/03/27 07:49:06;;;;;;;18.80;11.20;;;;;;;9.08;44.02;101026.74;103416;1302;24305;-23
2022/03/27 07:51:34;;;;;;;13.60;4.60;;;;;;;9.31;44.04;101033.52;103458;1302;24256;-27
2022/03/27 07:54:01;;;;;;;21.60;11.50;;;;;;;9.39;40.38;101035.04;103522;1302;26128;-26
2022/03/27 07:56:27;;;;;;;5.40;2.70;;;;;;;9.39;40.08;101036.47;103475;1302;24378;-25
2022/03/27 07:58:52;;;;;;;18.50;2.30;;;;;;;9.57;39.43;101037.39;103484;1302;23150;-28
2022/03/27 08:01:18;;;;;;;2.00;0.70;;;;;;;9.62;38.27;101036.71;103447;1302;22514;-27
2022/03/27 08:03:44;;;;;;;3.30;1.10;;;;;;;9.68;37.10;101042.75;103434;1300;24663;-31
2022/03/27 08:06:10;;;;;;;4.30;0.70;;;;;;;9.68;36.28;101043.52;103554;1302;24316;-27
2022/03/27 08:08:36;;;;;;;5.40;2.30;;;;;;;9.71;34.24;101049.48;103441;1302;24228;-29
2022/03/27 08:11:02;;;;;;;4.50;1.00;;;;;;;9.90;34.24;101049.89;103466;1302;22643;-28
2022/03/27 08:13:28;;;;;;;7.90;4.10;;;;;;;9.77;33.33;101047.11;103514;1302;24224;-27
2022/03/27 08:15:54;;;;;;;2.90;0.60;;;;;;;9.84;33.86;101046.61;103431;1302;24323;-28
2022/03/27 08:18:21;;;;;;;4.20;0.90;;;;;;;9.93;35.21;101044.96;103480;1302;25884;-30
2022/03/27 08:20:46;;;;;;;5.60;2.20;;;;;;;10.19;34.50;101037.73;103571;1302;24195;-28
2022/03/27 08:23:12;;;;;;;486.00;170.30;;;;;;;10.47;33.61;101041.40;103500;1301;24314;-29
2022/03/27 08:28:08;;;;;;;12.80;5.50;;;;;;;10.33;29.72;101043.98;103433;1302;22635;-25
2022/03/27 08:30:34;;;;;;;6.00;3.00;;;;;;;9.91;30.02;101048.54;103445;1302;24317;-31
2022/03/27 08:33:00;;;;;;;70.20;38.10;;;;;;;10.13;30.99;101048.92;103323;1302;24254;-30
2022/03/27 08:35:25;;;;;;;15.40;6.90;;;;;;;10.33;31.55;101045.15;103433;1302;24248;-29
2022/03/27 08:37:51;;;;;;;3.20;1.20;;;;;;;10.46;31.50;101046.87;103446;1302;24259;-26
2022/03/27 08:40:17;;;;;;;0.40;0.20;;;;;;;10.73;30.86;101042.06;103415;1302;24231;-29
2022/03/27 08:42:43;;;;;;;7.40;2.20;;;;;;;11.04;30.27;101035.34;103439;1302;24436;-25
2022/03/27 08:45:09;;;;;;;14.10;10.40;;;;;;;11.24;28.83;101031.44;103494;1302;24263;-27
2022/03/27 08:47:35;;;;;;;5.40;2.80;;;;;;;10.87;28.39;101027.06;103456;1302;24283;-28
2022/03/27 08:50:13;;;;;;;6.00;3.80;;;;;;;11.01;29.50;101021.81;103480;1302;24394;-25
2022/03/27 08:52:47;;;;;;;4.40;2.90;;;;;;;11.19;29.20;101015.42;103506;1302;24368;-28
2022/03/27 08:55:17;;;;;;;6.30;4.00;;;;;;;11.30;29.50;101009.45;103431;1302;24377;-28
2022/03/27 08:57:50;;;;;;;7.20;5.10;;;;;;;11.59;29.60;101004.61;103468;1302;24251;-28
2022/03/27 09:00:19;;;;;;;3.50;1.20;;;;;;;11.86;28.43;101004.98;103441;1302;24247;-25
2022/03/27 09:02:45;;;;;;;2.50;0.60;;;;;;;12.04;28.76;100998.74;103452;1302;22503;-30
2022/03/27 09:05:11;;;;;;;2.90;1.20;;;;;;;12.21;27.40;100999.21;103502;1302;24346;-28
2022/03/27 09:07:37;;;;;;;2.20;1.10;;;;;;;12.02;27.30;100998.94;103273;1302;24285;-25
2022/03/27 09:10:07;;;;;;;1.60;0.80;;;;;;;12.20;27.77;101000.52;103473;1302;24203;-25
2022/03/27 09:12:33;;;;;;;1.60;0.80;;;;;;;12.56;26.75;100993.70;103471;1302;24336;-25
2022/03/27 09:15:00;;;;;;;5.90;2.70;;;;;;;12.70;27.12;100993.92;103522;1302;24203;-27
2022/03/27 09:17:26;;;;;;;1.00;0.70;;;;;;;12.69;26.36;100988.38;103468;1302;24220;-28
2022/03/27 09:19:52;;;;;;;9.10;2.00;;;;;;;12.72;27.11;100990.66;103478;1302;24247;-26
2022/03/27 09:22:21;;;;;;;7.70;3.00;;;;;;;12.69;27.21;100991.91;103347;1302;24284;-30
2022/03/27 09:24:57;;;;;;;7.40;2.10;;;;;;;12.88;27.12;100993.42;103471;1302;22885;-25
2022/03/27 09:27:29;;;;;;;1.70;0.70;;;;;;;13.03;26.13;100989.73;103472;1302;24299;-25
2022/03/27 09:30:00;;;;;;;14.30;7.20;;;;;;;12.91;25.29;100987.80;103517;1302;24244;-28
2022/03/27 09:32:28;;;;;;;13.20;4.50;;;;;;;12.58;25.46;100980.95;103410;1302;25373;-25
2022/03/27 09:35:00;;;;;;;52.50;27.10;;;;;;;12.59;25.47;100980.42;103537;1302;22848;-24
2022/03/27 09:37:28;;;;;;;18.90;11.70;;;;;;;12.40;25.58;100984.33;103501;1302;22560;-28
2022/03/27 09:39:55;;;;;;;7.70;3.70;;;;;;;12.41;25.83;100980.46;103295;1302;24239;-26
2022/03/27 09:42:21;;;;;;;5.90;2.70;;;;;;;12.78;26.71;100979.52;103484;1302;24450;-24
2022/03/27 09:44:47;;;;;;;5.60;2.80;;;;;;;13.12;25.36;100979.38;103435;1302;24244;-28
2022/03/27 09:47:12;;;;;;;2.70;0.90;;;;;;;12.94;25.41;100977.64;103431;1302;24243;-27
2022/03/27 09:49:42;;;;;;;1.90;1.30;;;;;;;13.18;25.37;100982.06;103440;1302;24309;-28
2022/03/27 09:52:10;;;;;;;1.60;0.70;;;;;;;13.07;25.37;100980.63;103522;1301;24202;-24
2022/03/27 09:54:43;;;;;;;4.40;3.80;;;;;;;13.26;24.46;100978.23;103473;1302;22674;-30
2022/03/27 09:57:16;;;;;;;1.90;0.30;;;;;;;12.97;24.63;100977.75;103477;1302;24369;-28
2022/03/27 09:59:42;;;;;;;10.30;5.60;;;;;;;13.03;24.84;100970.48;103468;1302;25439;-25
2022/03/27 10:02:14;;;;;;;8.00;7.00;;;;;;;13.16;23.84;100968.58;103373;1302;24318;-25
2022/03/27 10:04:52;;;;;;;2.80;1.80;;;;;;;12.62;24.25;100969.34;103456;1302;24307;-28
2022/03/27 10:07:18;;;;;;;3.20;1.90;;;;;;;12.99;23.89;100966.98;103393;1302;23235;-25
2022/03/27 10:09:44;;;;;;;3.50;1.00;;;;;;;12.74;24.61;100962.41;103468;1302;24216;-25
2022/03/27 10:12:12;;;;;;;2.30;0.70;;;;;;;12.87;25.17;100954.79;103452;1302;22683;-25
2022/03/27 10:14:39;;;;;;;11.50;4.70;;;;;;;13.32;24.10;100949.75;103474;1302;24214;-29
2022/03/27 10:17:05;;;;;;;2.40;1.50;;;;;;;13.30;23.93;100957.89;103489;1302;22799;-26
2022/03/27 10:19:36;;;;;;;1.50;0.40;;;;;;;13.34;24.26;100951.45;103393;1302;24310;-24
2022/03/27 10:22:03;;;;;;;2.70;0.50;;;;;;;13.18;24.13;100945.88;103473;1302;25399;-28
2022/03/27 10:24:30;;;;;;;3.10;1.60;;;;;;;13.63;23.83;100934.59;103502;1302;22750;-24
2022/03/27 10:26:58;;;;;;;1.80;0.30;;;;;;;13.64;23.40;100933.30;103425;1302;24250;-27
2022/03/27 10:29:24;;;;;;;3.30;1.90;;;;;;;13.54;23.94;100933.30;103456;1302;24485;-27
2022/03/27 10:31:50;;;;;;;2.00;0.40;;;;;;;13.65;23.86;100923.23;103411;1302;24188;-26
2022/03/27 10:34:15;;;;;;;2.80;0.60;;;;;;;13.98;24.01;100916.95;103426;1302;24216;-30
2022/03/27 10:36:46;;;;;;;2.10;0.90;;;;;;;14.22;23.72;100903.33;103397;1302;24255;-26
2022/03/27 10:39:15;;;;;;;1.40;0.40;;;;;;;14.34;23.81;100905.14;103441;1302;24216;-26
2022/03/27 10:41:47;;;;;;;4.10;0.60;;;;;;;14.54;23.53;100902.38;103477;1302;22536;-30
2022/03/27 10:44:17;;;;;;;1.90;1.30;;;;;;;14.57;23.33;100907.25;103498;1302;22623;-30
2022/03/27 10:46:46;;;;;;;0.60;0.20;;;;;;;14.51;23.21;100904.48;103469;1302;25137;-26
2022/03/27 10:49:14;;;;;;;2.50;0.40;;;;;;;14.60;23.33;100901.72;103474;1302;22742;-28
2022/03/27 10:51:42;;;;;;;3.00;1.00;;;;;;;14.51;23.55;100898.90;103528;1302;24260;-28
2022/03/27 10:54:12;;;;;;;2.60;0.70;;;;;;;14.90;23.54;100896.56;103462;1302;22501;-28
2022/03/27 10:56:42;;;;;;;2.30;0.60;;;;;;;15.10;22.65;100897.18;103440;1303;24253;-28
2022/03/27 10:59:11;;;;;;;1.10;0.60;;;;;;;14.66;22.74;100900.71;103479;1302;24251;-25
2022/03/27 11:01:39;;;;;;;0.70;0.30;;;;;;;14.64;23.06;100899.44;103435;1302;24357;-25
2022/03/27 11:04:05;;;;;;;0.90;0.40;;;;;;;14.47;22.81;100893.53;103461;1302;24283;-27
2022/03/27 11:06:35;;;;;;;1.00;0.60;;;;;;;14.69;23.02;100891.89;103358;1303;24252;-25
2022/03/27 11:09:03;;;;;;;3.60;0.30;;;;;;;14.71;23.19;100890.55;103453;1302;24218;-28
2022/03/27 11:11:33;;;;;;;1.90;0.60;;;;;;;14.37;23.07;100883.56;103459;1302;24363;-28
2022/03/27 11:14:00;;;;;;;61.00;21.00;;;;;;;15.09;23.75;100885.34;103463;1302;24240;-28
2022/03/27 11:16:26;;;;;;;16.10;6.90;;;;;;;15.69;22.92;100882.41;103468;1302;24297;-28
2022/03/27 11:18:53;;;;;;;1.70;0.50;;;;;;;14.87;22.46;100888.09;103435;1302;24289;-28
2022/03/27 11:21:38;;;;;;;39.80;15.90;;;;;;;15.24;23.10;100882.44;103373;1302;24349;-28
2022/03/27 11:24:04;;;;;;;211.30;89.90;;;;;;;15.46;23.54;100876.68;103487;1302;24315;-24